Impacts METAR Board
IDs:

KMNZ - Hamilton Muni, TX, US

Updated at: 0200 UTC 15 Aug 2020
Potential Impact None Slight Moderate High
Time 14/14Z 14/15Z 14/16Z 14/17Z 14/18Z 14/19Z 14/20Z 14/21Z 14/22Z 14/23Z 15/00Z 15/01Z 15/02Z
Temp85 91 95 98 101 103 105 106 106 107 104 101 93
Dewpt69 67 65 64 62 60 60 58 56 57 54 52 54
Altim29.97 29.97 29.97 29.97 29.95 29.92 29.90 29.88 29.86 29.85 29.84 29.85 29.85
VIS10 10 10 10 10 10 10 10 10 10 10 10 10
CIG-- -- -- -- -- -- -- -- -- -- -- -- --
CoverCLRCLRCLRCLRCLRCLRCLRCLRCLRCLRCLRCLRCLR
FltCatVFRVFRVFRVFRVFRVFRVFRVFRVFRVFRVFRVFRVFR
WX--------------------------
WDir220210240230230190180170150190180170170
WSpd14 13 12 11 11 8 6 7 4 9 8 7 5
WGst19 -- -- 16 18 15 -- -- -- -- -- -- --
Raw hourly METARs
KMNZ 141355Z AUTO 22014G19KT 10SM CLR 30/20 A2997 RMK AO2 T02950204
KMNZ 141455Z AUTO 21013KT 10SM CLR 33/20 A2997 RMK AO2 T03250196
KMNZ 141555Z AUTO 24012KT 10SM CLR 35/19 A2997 RMK AO2 T03480185
KMNZ 141655Z AUTO 23011G16KT 10SM CLR 37/18 A2997 RMK AO2 T03670175
KMNZ 141755Z AUTO 23011G18KT 10SM CLR 39/17 A2995 RMK AO2 T03860167 10386 20250
KMNZ 141855Z AUTO 19008G15KT 160V220 10SM CLR 40/16 A2992 RMK AO2 T03960155
KMNZ 141955Z AUTO 18006KT 10SM CLR 40/16 A2990 RMK AO2 T04030155
KMNZ 142055Z AUTO 17007KT 10SM CLR 41/15 A2988 RMK AO2 T04130145 PWINO
KMNZ 142155Z AUTO 15004KT 10SM CLR 41/14 A2986 RMK AO2 T04130136 PWINO
KMNZ 142255Z AUTO 19009KT 10SM CLR 41/14 A2985 RMK AO2 T04140140
KMNZ 142355Z AUTO 18008KT 10SM CLR 40/12 A2984 RMK AO2 T04020124 10421 20386 PWINO
KMNZ 150055Z AUTO 17007KT 10SM CLR 38/11 A2985 RMK AO2 T03840113
KMNZ 150155Z AUTO 17005KT 10SM CLR 34/12 A2985 RMK AO2 T03380123